This is the latest recevied weather packets stored in our database for station/object 9W2CEW-1. If no packets are shown the sender has not sent any weather packets the latest 10 day(s).
| Time | Temp. | Humidity | Pressure | Rain* | Wind** | Luminosity | Snow |
|---|---|---|---|---|---|---|---|
| 1787856811 | 36.67° C | 46% | 1005.6 hPa | - | - | - | - |
| 1787855911 | 37.78° C | 44% | 1005.8 hPa | - | - | - | - |
| 1787855011 | 37.22° C | 45% | 1005.9 hPa | - | - | - | - |
| 1787854110 | 38.33° C | 42% | 1006.1 hPa | - | - | - | - |
| 1787853210 | 37.78° C | 44% | 1006.1 hPa | - | - | - | - |
| 1787852310 | 38.33° C | 43% | 1006.4 hPa | - | - | - | - |
| 1787851410 | 38.89° C | 41% | 1006.5 hPa | - | - | - | - |
| 1787850510 | 37.78° C | 44% | 1006.6 hPa | - | - | - | - |
| 1787849610 | 39.44° C | 40% | 1006.6 hPa | - | - | - | - |
| 1787848710 | 37.78° C | 44% | 1006.8 hPa | - | - | - | - |
| 1787847815 | 37.78° C | 44% | 1006.9 hPa | - | - | - | - |
| 1787846910 | 37.22° C | 45% | 1006.9 hPa | - | - | - | - |
| 1787846009 | 37.78° C | 43% | 1007 hPa | - | - | - | - |
| 1787845109 | 38.89° C | 41% | 1006.9 hPa | - | - | - | - |
| 1787844209 | 37.78° C | 43% | 1006.9 hPa | - | - | - | - |
| 1787843366 | 36.11° C | 48% | 1006.8 hPa | - | - | - | - |
| 1787843309 | 36.11° C | 48% | 1006.8 hPa | - | - | - | - |
| 1787842409 | 37.22° C | 45% | 1006.5 hPa | - | - | - | - |
| 1787841509 | 36.67° C | 46% | 1006.6 hPa | - | - | - | - |
| 1787840609 | 36.11° C | 47% | 1006.3 hPa | - | - | - | - |
| 1787839711 | 37.22° C | 44% | 1006.3 hPa | - | - | - | - |
| 1787838810 | 36.67° C | 44% | 1006.1 hPa | - | - | - | - |
| 1787837910 | 38.33° C | 41% | 1006.1 hPa | - | - | - | - |
| 1787837010 | 38.89° C | 40% | 1005.8 hPa | - | - | - | - |
| 1787836110 | 40° C | 39% | 1005.6 hPa | - | - | - | - |
* Rain since midnight (hover to see other rain measurements)
** Current wind speed in m/s (hover to see current wind gust speed)